Time;durP1;ratioP1;P1;durP2;ratioP2;P2;SDS_P1;SDS_P2;PMS_P1;PMS_P2;Temp;Humidity;BMP_temperature;BMP_pressure;BME280_temperature;BME280_humidity;BME280_pressure;Samples;Min_cycle;Max_cycle;Signal;HPM_P1;HPM_P2
2021/01/05 00:01:50;;;;;;;;;18.50;17.25;;;;;5.38;72.11;102081.44;4373386;32;12421;-76
2021/01/05 00:04:46;;;;;;;;;24.75;24.75;;;;;5.63;70.83;102081.63;4372956;32;12485;-78
2021/01/05 00:07:42;;;;;;;;;17.25;17.25;;;;;5.49;70.91;102073.00;4375228;32;12377;-76
2021/01/05 00:10:37;;;;;;;;;20.75;19.75;;;;;5.32;71.00;102074.25;4374847;32;12406;-76
2021/01/05 00:13:33;;;;;;;;;19.25;18.25;;;;;5.47;70.98;102072.47;4366519;32;12402;-78
2021/01/05 00:16:30;;;;;;;;;19.25;16.75;;;;;5.54;70.70;102073.06;4361137;32;12435;-76
2021/01/05 00:19:26;;;;;;;;;15.00;15.00;;;;;5.47;70.61;102068.88;4364164;32;13092;-76
2021/01/05 00:21:54;;;;;;;;;18.50;17.50;;;;;5.27;71.20;102073.13;4375850;32;11767;-76
2021/01/05 00:24:49;;;;;;;;;17.50;17.50;;;;;5.50;70.46;102065.59;4367844;32;12402;-77
2021/01/05 00:27:30;;;;;;;;;13.75;13.75;;;;;5.50;70.44;102071.09;4361977;32;12439;-76
2021/01/05 00:30:26;;;;;;;;;22.00;19.50;;;;;5.30;70.79;102069.03;4349369;33;12410;-76
2021/01/05 00:32:54;;;;;;;;;19.00;19.00;;;;;5.46;70.46;102065.31;4361605;32;13245;-76
2021/01/05 00:35:50;;;;;;;;;20.75;20.75;;;;;5.19;70.96;102070.03;4370083;32;12475;-76
2021/01/05 00:38:18;;;;;;;;;22.00;18.75;;;;;5.29;70.84;102068.22;4375850;32;12465;-76
2021/01/05 00:41:14;;;;;;;;;16.75;15.25;;;;;5.50;70.52;102068.34;4375376;32;12454;-76
2021/01/05 00:43:42;;;;;;;;;16.50;16.50;;;;;5.58;70.28;102065.94;4358129;32;12468;-75
2021/01/05 00:46:40;;;;;;;;;14.75;12.75;;;;;5.09;71.49;102065.28;4353477;32;12402;-75
2021/01/05 00:49:36;;;;;;;;;15.75;15.75;;;;;4.91;71.53;102065.69;4367797;32;12493;-76
2021/01/05 00:52:03;;;;;;;;;12.00;12.00;;;;;5.12;71.06;102061.19;4375483;32;12383;-76
2021/01/05 00:54:59;;;;;;;;;10.50;10.50;;;;;5.10;70.79;102066.94;4358826;32;12407;-75
2021/01/05 00:57:54;;;;;;;;;12.25;12.25;;;;;5.05;70.50;102055.09;4359282;32;12438;-75
2021/01/05 01:00:53;;;;;;;;;13.00;13.00;;;;;4.86;70.93;102060.13;4350404;33;12446;-76
2021/01/05 01:03:49;;;;;;;;;14.00;12.00;;;;;5.09;70.26;102054.31;4358159;32;12468;-76
2021/01/05 01:06:45;;;;;;;;;11.75;11.75;;;;;5.00;70.28;102042.19;4360167;32;12481;-76
2021/01/05 01:09:40;;;;;;;;;11.00;11.00;;;;;4.80;70.55;102041.97;4349870;33;12386;-76
2021/01/05 01:12:36;;;;;;;;;11.50;11.50;;;;;4.55;71.60;102031.59;4365853;32;12570;-76
2021/01/05 01:15:32;;;;;;;;;14.25;14.25;;;;;4.27;72.06;102046.31;4364292;32;12395;-75
2021/01/05 01:18:27;;;;;;;;;18.50;18.50;;;;;4.69;71.14;102035.56;4371114;32;12441;-75
2021/01/05 01:21:24;;;;;;;;;8.25;7.25;;;;;4.85;70.79;102031.91;4360848;32;13052;-76
2021/01/05 01:23:51;;;;;;;;;14.25;14.25;;;;;4.71;71.05;102036.13;4357901;32;12351;-76
2021/01/05 01:26:47;;;;;;;;;11.75;11.75;;;;;4.71;71.12;102036.97;4364908;32;12412;-76
2021/01/05 01:29:20;;;;;;;;;11.00;11.00;;;;;4.83;70.71;102038.69;4376440;32;12425;-76
2021/01/05 01:32:16;;;;;;;;;12.25;11.75;;;;;4.36;72.06;102033.84;4375496;32;12561;-76
2021/01/05 01:35:13;;;;;;;;;13.50;13.50;;;;;4.52;71.45;102034.81;4374966;32;12440;-76
2021/01/05 01:38:09;;;;;;;;;15.25;14.50;;;;;4.62;71.06;102027.56;4373364;32;12456;-76
2021/01/05 01:41:04;;;;;;;;;14.50;14.50;;;;;4.60;71.26;102026.13;4363663;32;12373;-76
2021/01/05 01:44:02;;;;;;;;;16.75;16.75;;;;;4.62;71.20;102024.81;4367252;32;13065;-76
2021/01/05 01:47:12;;;;;;;;;7.50;7.50;;;;;4.30;71.66;102018.44;4362860;32;12427;-76
2021/01/05 01:50:15;;;;;;;;;10.50;10.50;;;;;4.44;71.45;102009.53;4359547;32;12345;-77
2021/01/05 01:53:38;;;;;;;;;10.00;10.00;;;;;4.34;71.52;102006.69;4359226;32;12377;-76
2021/01/05 01:57:01;;;;;;;;;15.00;15.00;;;;;4.22;71.98;101996.97;4359534;32;12446;-76
2021/01/05 01:59:49;;;;;;;;;15.50;15.50;;;;;4.21;71.79;101998.03;4358625;32;12458;-76
2021/01/05 02:03:08;;;;;;;;;15.00;13.50;;;;;4.09;72.47;101985.34;4359015;32;12465;-76
2021/01/05 02:06:09;;;;;;;;;12.50;12.50;;;;;4.44;71.51;101993.09;4358412;33;12607;-76
2021/01/05 02:09:14;;;;;;;;;16.00;15.75;;;;;4.13;72.15;101997.41;4359565;32;13341;-76
2021/01/05 02:12:24;;;;;;;;;5.75;5.75;;;;;4.33;71.58;102006.97;4368840;32;12383;-77
2021/01/05 02:15:34;;;;;;;;;11.75;11.75;;;;;4.39;71.33;102001.28;4348879;32;12354;-77
2021/01/05 02:18:45;;;;;;;;;13.25;13.25;;;;;4.68;70.12;102006.53;4358605;32;12388;-76
2021/01/05 02:22:13;;;;;;;;;12.50;11.25;;;;;4.13;71.85;101993.84;4359122;32;12391;-77
2021/01/05 02:25:09;;;;;;;;;11.00;11.00;;;;;4.06;72.09;101995.97;4348079;32;12362;-76
2021/01/05 02:28:09;;;;;;;;;12.00;12.00;;;;;3.79;72.29;101991.25;4358296;32;13101;-77
2021/01/05 02:31:15;;;;;;;;;18.25;18.25;;;;;4.26;70.99;101995.38;4359552;32;12385;-77
2021/01/05 02:34:40;;;;;;;;;19.75;19.75;;;;;4.33;70.59;101982.31;4358105;33;12488;-77
2021/01/05 02:37:54;;;;;;;;;22.50;19.50;;;;;4.55;69.89;101979.53;4359921;32;12388;-76
2021/01/05 02:41:12;;;;;;;;;14.50;14.00;;;;;4.19;70.90;101981.88;4375082;32;12419;-77
2021/01/05 02:44:45;;;;;;;;;15.50;15.50;;;;;4.42;70.51;101980.75;4358534;32;12507;-76
2021/01/05 02:47:58;;;;;;;;;15.00;14.75;;;;;4.54;70.06;101975.97;4358726;32;12412;-76
2021/01/05 02:51:30;;;;;;;;;14.00;14.00;;;;;4.62;69.60;101978.22;4364315;32;12403;-76
2021/01/05 02:54:53;;;;;;;;;15.25;15.25;;;;;4.26;70.84;101970.72;4370317;32;12590;-77
2021/01/05 02:58:25;;;;;;;;;14.75;14.75;;;;;4.47;70.00;101947.94;4376000;32;12360;-75
2021/01/05 03:01:46;;;;;;;;;14.75;14.75;;;;;4.50;70.11;101952.91;4375463;32;13016;-76
2021/01/05 03:04:41;;;;;;;;;15.75;14.00;;;;;4.57;70.35;101964.47;4371824;32;12547;-76
2021/01/05 03:07:37;;;;;;;;;14.25;13.25;;;;;4.41;70.55;101955.28;4361955;32;13079;-75
2021/01/05 03:10:52;;;;;;;;;15.25;15.25;;;;;4.27;70.97;101955.94;4372249;32;12419;-76
2021/01/05 03:14:01;;;;;;;;;11.50;11.50;;;;;4.10;71.36;101947.84;4359582;32;12399;-76
2021/01/05 03:17:08;;;;;;;;;14.25;11.25;;;;;3.94;71.63;101944.09;4372228;32;12389;-77
2021/01/05 03:20:13;;;;;;;;;9.75;9.75;;;;;4.28;70.62;101947.47;4362828;32;12501;-76
2021/01/05 03:23:13;;;;;;;;;11.25;11.25;;;;;4.15;70.90;101953.38;4368592;32;12469;-76
2021/01/05 03:26:11;;;;;;;;;15.25;15.25;;;;;4.10;70.82;101956.88;4373453;32;12386;-76
2021/01/05 03:29:08;;;;;;;;;16.25;15.50;;;;;3.93;71.75;101952.56;4383238;32;12405;-76
2021/01/05 03:32:08;;;;;;;;;13.75;13.75;;;;;3.93;71.25;101955.31;4378887;32;12399;-76
2021/01/05 03:34:36;;;;;;;;;15.00;15.00;;;;;3.92;71.31;101953.66;4378741;32;12390;-75
2021/01/05 03:37:32;;;;;;;;;12.00;11.50;;;;;3.40;72.55;101943.13;4378242;32;12457;-76
2021/01/05 03:40:27;;;;;;;;;17.50;15.25;;;;;3.69;71.87;101946.53;4364737;32;12418;-76
2021/01/05 03:43:24;;;;;;;;;13.75;13.75;;;;;3.82;71.49;101946.13;4373586;32;12483;-76
2021/01/05 03:45:59;;;;;;;;;12.00;12.00;;;;;3.70;71.82;101959.13;4369603;32;12409;-76
2021/01/05 03:48:57;;;;;;;;;21.00;15.00;;;;;3.82;71.00;101952.44;4368182;32;12397;-76
2021/01/05 03:51:53;;;;;;;;;13.00;13.00;;;;;3.81;71.48;101969.09;4376786;32;12307;-76
2021/01/05 03:54:36;;;;;;;;;8.00;8.00;;;;;3.81;71.53;101969.94;4378694;32;12467;-75
2021/01/05 03:57:32;;;;;;;;;11.75;11.75;;;;;3.92;70.89;101965.44;4379357;32;12527;-77
2021/01/05 04:00:13;;;;;;;;;13.25;13.00;;;;;3.48;71.76;101970.03;4390871;32;12347;-78
2021/01/05 04:03:11;;;;;;;;;13.50;13.50;;;;;3.89;71.22;101985.06;4382815;32;12335;-77
2021/01/05 04:06:06;;;;;;;;;7.25;7.25;;;;;3.74;71.16;101960.25;4381224;32;12511;-77
2021/01/05 04:09:02;;;;;;;;;15.50;15.50;;;;;3.63;71.21;101964.78;4376745;32;12406;-77
2021/01/05 04:11:30;;;;;;;;;12.00;12.00;;;;;3.74;71.89;101955.59;4354924;32;12512;-78
2021/01/05 04:13:57;;;;;;;;;17.75;17.75;;;;;3.90;71.08;101959.34;4351310;33;12389;-76
2021/01/05 04:16:53;;;;;;;;;12.75;12.75;;;;;3.89;71.00;101957.72;4354233;32;12410;-77
2021/01/05 04:19:48;;;;;;;;;12.50;12.50;;;;;3.66;71.42;101956.06;4363715;32;12407;-77
2021/01/05 04:22:44;;;;;;;;;12.25;12.25;;;;;3.68;71.87;101953.91;4364024;32;12573;-77
2021/01/05 04:25:39;;;;;;;;;15.00;14.50;;;;;3.69;71.82;101954.75;4352624;33;12521;-77
2021/01/05 04:28:35;;;;;;;;;20.50;19.50;;;;;3.86;71.21;101963.69;4362440;32;12609;-77
2021/01/05 04:31:42;;;;;;;;;10.50;10.50;;;;;3.92;71.20;101959.97;4371801;32;13004;-76
2021/01/05 04:34:38;;;;;;;;;13.50;12.50;;;;;3.69;71.46;101966.50;4366164;32;12378;-76
2021/01/05 04:37:33;;;;;;;;;13.25;12.25;;;;;3.94;71.07;101974.19;4366997;32;12386;-76
2021/01/05 04:40:35;;;;;;;;;18.75;18.75;;;;;3.85;71.29;101978.47;4374944;32;12385;-76
2021/01/05 04:43:34;;;;;;;;;31.75;29.75;;;;;3.73;71.09;101964.06;4375149;32;12603;-76
2021/01/05 04:46:33;;;;;;;;;17.50;15.25;;;;;3.54;72.55;101972.59;4369794;32;12383;-78
2021/01/05 04:50:07;;;;;;;;;16.75;16.75;;;;;3.94;70.99;101976.94;4374780;32;12399;-78
2021/01/05 04:53:11;;;;;;;;;13.50;13.50;;;;;3.90;71.03;101968.41;4352281;33;12485;-79
2021/01/05 04:56:12;;;;;;;;;19.00;19.00;;;;;3.83;71.37;101976.00;4370260;32;12380;-79
2021/01/05 04:59:12;;;;;;;;;15.25;15.25;;;;;4.02;70.85;101981.97;4375422;32;12424;-79
2021/01/05 05:02:45;;;;;;;;;17.75;17.75;;;;;3.88;71.12;101987.00;4370020;32;12464;-80
2021/01/05 05:05:52;;;;;;;;;17.00;16.25;;;;;3.81;71.04;101958.97;4358594;32;13094;-79
2021/01/05 05:08:44;;;;;;;;;28.75;27.75;;;;;3.90;71.18;101970.31;4375145;32;13055;-80
2021/01/05 05:11:55;;;;;;;;;22.25;20.50;;;;;3.91;71.29;101974.72;4359569;32;13063;-79
2021/01/05 05:14:54;;;;;;;;;19.00;19.00;;;;;3.97;71.21;101978.34;4373914;32;12454;-78
2021/01/05 05:18:02;;;;;;;;;25.00;25.00;;;;;4.07;70.68;101976.56;4373829;32;12505;-78
2021/01/05 05:21:16;;;;;;;;;24.75;24.75;;;;;4.22;70.04;101989.59;4373504;32;12399;-75
2021/01/05 05:24:25;;;;;;;;;23.50;23.50;;;;;3.88;71.21;101978.78;4374019;32;12386;-75
2021/01/05 05:26:52;;;;;;;;;16.25;15.75;;;;;4.08;70.55;101980.13;4375017;32;12461;-75
2021/01/05 05:30:01;;;;;;;;;19.25;17.25;;;;;4.02;70.57;101979.22;4375561;32;13053;-75
2021/01/05 05:33:00;;;;;;;;;18.25;18.25;;;;;4.08;70.60;101983.69;4376227;32;13064;-74
2021/01/05 05:36:04;;;;;;;;;19.25;19.25;;;;;4.20;71.62;101983.53;4365908;32;12370;-74
2021/01/05 05:39:19;;;;;;;;;25.25;25.25;;;;;4.64;76.74;101977.97;4373315;32;12415;-74
2021/01/05 05:42:05;;;;;;;;;15.00;15.00;;;;;5.68;80.90;101977.38;4362723;32;12546;-75
2021/01/05 05:45:22;;;;;;;;;18.00;18.00;;;;;5.79;81.20;101970.00;4363962;32;12414;-75
2021/01/05 05:48:45;;;;;;;;;15.50;15.00;;;;;5.72;80.66;101970.22;4359905;32;12495;-74
2021/01/05 05:51:49;;;;;;;;;15.50;15.50;;;;;5.33;72.61;101968.91;4358545;32;12469;-73
2021/01/05 05:54:44;;;;;;;;;24.50;24.00;;;;;5.78;76.01;101957.38;4367188;32;12478;-74
2021/01/05 05:57:48;;;;;;;;;20.75;20.75;;;;;5.72;72.76;101953.75;4365022;32;12382;-74
2021/01/05 06:00:48;;;;;;;;;19.75;19.75;;;;;5.44;74.15;101951.41;4383349;32;12431;-76
2021/01/05 06:03:43;;;;;;;;;16.50;16.50;;;;;5.52;75.00;101950.91;4364166;32;12456;-74
2021/01/05 06:06:41;;;;;;;;;22.25;19.75;;;;;5.43;72.92;101950.59;4375492;32;13106;-74
2021/01/05 06:09:24;;;;;;;;;20.75;20.50;;;;;5.14;72.88;101941.94;4373509;32;12449;-74
2021/01/05 06:12:20;;;;;;;;;19.75;18.00;;;;;5.60;73.14;101933.97;4364737;32;12386;-74
2021/01/05 06:15:17;;;;;;;;;21.75;21.00;;;;;5.47;72.55;101924.28;4377213;32;12517;-74
2021/01/05 06:18:15;;;;;;;;;21.25;21.25;;;;;5.48;71.54;101928.66;4363463;32;12426;-76
2021/01/05 06:20:51;;;;;;;;;19.75;19.00;;;;;4.94;69.90;101931.63;4362903;32;12433;-76
2021/01/05 06:23:46;;;;;;;;;19.50;18.75;;;;;4.38;69.97;101931.16;4372574;32;12550;-77
2021/01/05 06:26:42;;;;;;;;;26.00;23.00;;;;;4.58;69.64;101926.94;4363231;32;12461;-77
2021/01/05 06:29:38;;;;;;;;;19.50;19.50;;;;;4.15;70.25;101918.59;4372249;32;12319;-77
2021/01/05 06:32:34;;;;;;;;;19.75;19.75;;;;;4.32;70.45;101928.63;4372903;32;12371;-77
2021/01/05 06:35:18;;;;;;;;;20.75;20.75;;;;;4.67;69.40;101936.31;4374214;32;12454;-76
2021/01/05 06:37:49;;;;;;;;;22.50;22.25;;;;;4.48;69.87;101933.16;4374975;32;12518;-75
2021/01/05 06:40:26;;;;;;;;;17.00;17.00;;;;;4.27;70.20;101925.81;4360255;32;12436;-75
2021/01/05 06:42:53;;;;;;;;;19.00;19.00;;;;;4.54;69.58;101928.56;4360038;32;12437;-76
2021/01/05 06:45:49;;;;;;;;;14.00;14.00;;;;;4.12;70.89;101926.50;4357596;32;13117;-74
2021/01/05 06:48:32;;;;;;;;;22.00;22.00;;;;;4.19;70.56;101924.38;4359904;32;13030;-74
2021/01/05 06:51:29;;;;;;;;;19.00;18.25;;;;;4.32;70.28;101921.22;4371352;32;12298;-75
2021/01/05 06:53:56;;;;;;;;;15.00;15.00;;;;;4.46;69.99;101924.38;4373677;32;12376;-75
2021/01/05 06:56:24;;;;;;;;;25.00;23.00;;;;;4.44;70.23;101915.56;4360849;32;12399;-76
2021/01/05 06:59:21;;;;;;;;;21.25;21.25;;;;;4.46;70.03;101922.47;4372626;32;12446;-74
2021/01/05 07:02:16;;;;;;;;;16.25;15.25;;;;;4.08;71.33;101928.94;4372139;32;12400;-77
2021/01/05 07:05:13;;;;;;;;;21.50;21.50;;;;;4.60;70.07;101931.09;4373641;32;12440;-76
2021/01/05 07:08:09;;;;;;;;;23.75;23.50;;;;;4.66;69.62;101932.75;4373212;32;12427;-75
2021/01/05 07:11:05;;;;;;;;;30.00;27.75;;;;;4.54;69.65;101923.09;4373497;32;12491;-77
2021/01/05 07:13:50;;;;;;;;;26.00;24.25;;;;;4.70;69.54;101919.38;4372124;32;12394;-74
2021/01/05 07:16:17;;;;;;;;;31.75;28.75;;;;;4.36;69.79;101907.81;4355989;33;12381;-75
2021/01/05 07:19:13;;;;;;;;;24.50;24.50;;;;;4.63;69.75;101918.78;4357963;32;12429;-76
2021/01/05 07:22:09;;;;;;;;;23.75;22.50;;;;;4.59;69.93;101912.16;4357750;32;12432;-76
2021/01/05 07:24:59;;;;;;;;;32.75;30.50;;;;;4.59;69.77;101915.72;4348683;33;12392;-76
2021/01/05 07:27:42;;;;;;;;;28.25;27.00;;;;;4.44;70.06;101901.88;4358537;33;13270;-75
2021/01/05 07:30:11;;;;;;;;;27.00;27.00;;;;;4.58;69.49;101903.09;4359192;33;12404;-75
2021/01/05 07:33:06;;;;;;;;;30.50;28.50;;;;;4.74;69.07;101906.78;4348282;33;12623;-76
2021/01/05 07:35:49;;;;;;;;;26.00;25.50;;;;;4.70;68.94;101906.50;4359238;33;12388;-76
2021/01/05 07:38:45;;;;;;;;;28.50;28.50;;;;;4.74;68.49;101899.38;4348254;33;13096;-74
2021/01/05 07:41:41;;;;;;;;;23.75;22.00;;;;;4.64;69.22;101915.75;4347862;32;12456;-74
2021/01/05 07:44:12;;;;;;;;;29.50;29.50;;;;;4.83;69.08;101904.37;4370180;32;12405;-73
2021/01/05 07:47:09;;;;;;;;;23.25;23.00;;;;;4.49;69.39;101893.72;4363715;32;12481;-75
2021/01/05 07:50:16;;;;;;;;;22.75;22.75;;;;;4.45;68.98;101887.94;4373217;32;12412;-74
2021/01/05 07:53:11;;;;;;;;;24.00;23.00;;;;;4.82;68.54;101886.28;4348115;32;12400;-74
2021/01/05 07:56:07;;;;;;;;;23.25;22.50;;;;;4.87;68.56;101873.44;4370270;32;12511;-75
2021/01/05 07:59:02;;;;;;;;;26.00;25.50;;;;;5.03;67.87;101877.13;4360743;32;12395;-74
2021/01/05 08:01:58;;;;;;;;;26.75;26.25;;;;;5.11;67.85;101860.16;4367994;32;12417;-74
2021/01/05 08:04:53;;;;;;;;;23.00;23.00;;;;;4.76;68.08;101851.75;4371397;32;12462;-74
2021/01/05 08:07:49;;;;;;;;;28.25;27.25;;;;;5.17;67.48;101864.59;4357286;32;12597;-75
2021/01/05 08:10:45;;;;;;;;;26.00;26.00;;;;;5.21;67.14;101873.94;4359652;32;13103;-74
2021/01/05 08:13:40;;;;;;;;;25.50;23.75;;;;;4.99;67.08;101868.63;4371004;32;12364;-75
2021/01/05 08:16:13;;;;;;;;;30.50;28.00;;;;;4.99;67.54;101857.66;4373900;32;12448;-75
2021/01/05 08:19:08;;;;;;;;;27.50;26.25;;;;;5.59;66.50;101852.69;4364132;32;12464;-75
2021/01/05 08:21:57;;;;;;;;;39.25;33.50;;;;;5.50;66.32;101848.81;4372831;32;12508;-76
2021/01/05 08:24:25;;;;;;;;;21.50;21.50;;;;;5.45;66.07;101843.34;4360012;32;12493;-75
2021/01/05 08:27:17;;;;;;;;;31.75;30.25;;;;;5.67;65.63;101834.88;4362654;32;12452;-75
2021/01/05 08:30:16;;;;;;;;;28.75;28.00;;;;;5.46;65.82;101826.59;4373164;32;12369;-75
2021/01/05 08:32:48;;;;;;;;;30.00;30.00;;;;;6.00;64.50;101825.38;4358723;32;12531;-75
2021/01/05 08:35:17;;;;;;;;;23.50;21.50;;;;;5.86;64.74;101825.06;4372113;32;13068;-76
2021/01/05 08:38:13;;;;;;;;;24.50;24.50;;;;;5.89;64.96;101821.75;4363543;32;12552;-75
2021/01/05 08:41:09;;;;;;;;;23.75;22.25;;;;;6.02;64.80;101823.19;4372698;32;12653;-75
2021/01/05 08:44:05;;;;;;;;;31.75;31.25;;;;;6.20;64.00;101817.16;4365606;32;12442;-74
2021/01/05 08:47:03;;;;;;;;;21.00;20.00;;;;;6.44;63.85;101811.97;4365443;32;12480;-74
2021/01/05 08:50:00;;;;;;;;;34.50;33.00;;;;;6.28;63.15;101802.03;4364699;32;12512;-75
2021/01/05 08:53:02;;;;;;;;;36.00;34.50;;;;;6.20;63.85;101803.41;4374149;32;12510;-74
2021/01/05 08:55:57;;;;;;;;;32.75;30.00;;;;;6.05;64.41;101803.41;4374143;32;12410;-74
2021/01/05 08:58:28;;;;;;;;;35.50;33.00;;;;;6.24;63.88;101799.03;4361836;32;12464;-75
2021/01/05 09:01:24;;;;;;;;;33.75;30.75;;;;;6.45;62.54;101810.03;4365401;32;12485;-75
2021/01/05 09:04:20;;;;;;;;;32.25;30.75;;;;;6.17;63.10;101801.22;4376121;32;12565;-76
2021/01/05 09:06:54;;;;;;;;;35.00;27.00;;;;;6.39;62.78;101810.03;4362527;32;12465;-77
2021/01/05 09:09:30;;;;;;;;;26.50;26.50;;;;;6.34;62.34;101801.78;4365800;32;12434;-75
2021/01/05 09:12:05;;;;;;;;;32.00;31.25;;;;;6.46;62.22;101787.75;4376027;32;12398;-75
2021/01/05 09:15:05;;;;;;;;;28.75;27.00;;;;;6.69;62.25;101794.59;4364971;32;13108;-75
2021/01/05 09:18:02;;;;;;;;;30.00;30.00;;;;;7.09;61.14;101788.16;4370611;32;12416;-76
2021/01/05 09:20:58;;;;;;;;;29.50;26.75;;;;;7.20;61.19;101786.19;4364093;32;12632;-75
2021/01/05 09:23:59;;;;;;;;;23.25;23.25;;;;;7.56;60.18;101786.00;4363952;32;12466;-76
2021/01/05 09:27:03;;;;;;;;;30.75;30.75;;;;;7.61;59.42;101786.00;4363480;32;12405;-75
2021/01/05 09:29:58;;;;;;;;;24.75;23.25;;;;;7.85;58.75;101775.91;4375895;32;12431;-75
2021/01/05 09:32:54;;;;;;;;;32.25;30.75;;;;;8.12;58.65;101763.59;4363925;32;12553;-75
2021/01/05 09:35:22;;;;;;;;;33.75;31.50;;;;;8.14;57.86;101775.16;4374660;32;13035;-74
2021/01/05 09:38:08;;;;;;;;;25.50;25.50;;;;;7.94;58.24;101770.62;4346101;32;12574;-75
2021/01/05 09:41:03;;;;;;;;;29.00;28.25;;;;;7.69;59.05;101766.13;4360461;32;12406;-75
2021/01/05 09:43:59;;;;;;;;;25.25;25.00;;;;;7.84;58.57;101751.44;4369086;32;12425;-74
2021/01/05 09:46:57;;;;;;;;;16.75;16.75;;;;;7.97;59.04;101762.59;4369780;32;12415;-75
2021/01/05 09:49:27;;;;;;;;;14.25;14.25;;;;;7.78;58.37;101753.38;4366082;32;12399;-74
2021/01/05 09:52:24;;;;;;;;;29.50;29.50;;;;;7.42;58.91;101752.78;4349072;33;12407;-76
2021/01/05 09:55:20;;;;;;;;;25.75;24.00;;;;;8.19;58.63;101758.56;4358429;33;12509;-76
2021/01/05 09:58:15;;;;;;;;;39.25;35.75;;;;;8.52;57.03;101752.25;4378509;32;12427;-77
2021/01/05 10:01:11;;;;;;;;;25.50;24.25;;;;;8.42;56.70;101746.81;4382354;32;12362;-74
2021/01/05 10:03:44;;;;;;;;;28.75;28.75;;;;;8.07;58.07;101746.00;4362579;32;12386;-75
2021/01/05 10:06:33;;;;;;;;;18.25;17.25;;;;;8.27;58.20;101725.69;4359708;32;12516;-75
2021/01/05 10:09:15;;;;;;;;;20.25;19.25;;;;;8.19;58.08;101742.03;4336180;33;12409;-75
2021/01/05 10:12:12;;;;;;;;;20.50;20.50;;;;;8.16;57.63;101732.41;4358692;33;12409;-74
2021/01/05 10:15:10;;;;;;;;;21.00;20.00;;;;;8.30;58.11;101729.81;4349376;32;12409;-73
2021/01/05 10:18:06;;;;;;;;;22.75;22.75;;;;;7.84;58.90;101723.88;4350496;32;12473;-76
2021/01/05 10:20:35;;;;;;;;;19.50;19.50;;;;;8.21;57.57;101715.84;4366036;32;12501;-75
2021/01/05 10:23:16;;;;;;;;;24.75;24.00;;;;;8.43;57.22;101720.06;4365049;32;13058;-74
2021/01/05 10:25:44;;;;;;;;;18.25;17.50;;;;;8.60;56.92;101721.25;4360867;32;13034;-74
2021/01/05 10:28:12;;;;;;;;;19.00;17.50;;;;;8.15;57.78;101710.66;4374270;32;12348;-75
2021/01/05 10:30:40;;;;;;;;;16.00;16.00;;;;;8.18;57.77;101716.41;4373997;32;13161;-75
2021/01/05 10:33:08;;;;;;;;;17.75;17.75;;;;;8.53;57.35;101712.50;4359337;32;12983;-75
2021/01/05 10:35:51;;;;;;;;;20.00;20.00;;;;;8.41;56.97;101711.25;4373979;32;12324;-76
2021/01/05 10:38:48;;;;;;;;;21.00;19.25;;;;;8.57;57.27;101698.97;4362331;32;12396;-75
2021/01/05 10:41:19;;;;;;;;;17.75;17.75;;;;;8.84;56.46;101692.84;4361415;32;12274;-76
2021/01/05 10:44:18;;;;;;;;;20.25;19.50;;;;;9.05;56.53;101694.25;4372627;32;12384;-76
2021/01/05 10:47:14;;;;;;;;;20.50;20.50;;;;;8.25;57.26;101696.78;4358496;32;12408;-75
2021/01/05 10:50:13;;;;;;;;;21.50;19.00;;;;;7.86;58.22;101694.94;4351547;32;12443;-75
2021/01/05 10:53:08;;;;;;;;;26.25;26.25;;;;;8.19;57.32;101692.44;4371787;32;12407;-76
2021/01/05 10:56:04;;;;;;;;;22.50;21.75;;;;;7.98;58.22;101678.88;4374087;32;13186;-75
2021/01/05 10:58:59;;;;;;;;;19.00;18.50;;;;;7.97;57.87;101663.41;4376613;32;12403;-75
2021/01/05 11:01:50;;;;;;;;;25.50;23.75;;;;;8.12;58.09;101659.69;4378695;32;12468;-75
2021/01/05 11:04:46;;;;;;;;;24.00;24.00;;;;;7.45;59.56;101653.97;4373889;32;12763;-75
2021/01/05 11:07:28;;;;;;;;;23.25;22.00;;;;;7.65;59.59;101655.72;4361191;32;12462;-74
2021/01/05 11:10:23;;;;;;;;;19.75;19.75;;;;;7.05;61.04;101646.75;4361949;32;12472;-74
2021/01/05 11:13:19;;;;;;;;;40.75;37.50;;;;;7.18;61.36;101637.06;4371691;32;12409;-75
2021/01/05 11:16:16;;;;;;;;;27.00;27.00;;;;;7.74;60.19;101629.22;4372685;32;12408;-75
2021/01/05 11:18:58;;;;;;;;;24.25;23.50;;;;;7.91;59.63;101634.31;4362313;32;13064;-75
2021/01/05 11:21:59;;;;;;;;;25.75;23.50;;;;;7.90;59.97;101629.06;4372443;32;12407;-74
2021/01/05 11:24:54;;;;;;;;;21.00;21.00;;;;;7.39;60.77;101635.84;4352904;32;12396;-74
2021/01/05 11:27:50;;;;;;;;;19.25;19.25;;;;;7.78;60.29;101629.47;4372249;32;12472;-75
2021/01/05 11:30:46;;;;;;;;;17.00;17.00;;;;;7.65;60.62;101625.44;4361499;32;12430;-74
2021/01/05 11:33:30;;;;;;;;;14.50;14.50;;;;;7.56;61.02;101634.59;4372646;32;12390;-76
2021/01/05 11:36:28;;;;;;;;;21.25;21.25;;;;;7.96;60.17;101623.22;4352870;32;12404;-76
2021/01/05 11:39:24;;;;;;;;;23.25;23.25;;;;;8.02;59.98;101630.31;4372493;32;13038;-75
2021/01/05 11:41:51;;;;;;;;;31.00;29.75;;;;;8.15;60.09;101617.81;4373017;32;12398;-75
2021/01/05 11:44:19;;;;;;;;;31.75;28.25;;;;;8.08;60.48;101623.66;4374048;32;12505;-76
2021/01/05 11:46:47;;;;;;;;;28.75;27.00;;;;;8.26;59.92;101621.25;4360527;32;12498;-75
2021/01/05 11:49:15;;;;;;;;;15.50;15.50;;;;;8.38;59.33;101620.88;4376540;32;12403;-74
2021/01/05 11:51:43;;;;;;;;;19.25;19.25;;;;;7.72;60.11;101623.16;4376184;32;12456;-75
2021/01/05 11:54:11;;;;;;;;;20.00;19.50;;;;;8.31;59.14;101621.22;4376996;32;12389;-76
2021/01/05 11:56:39;;;;;;;;;18.50;18.50;;;;;8.67;58.45;101624.41;4377325;32;13108;-75
2021/01/05 11:59:07;;;;;;;;;18.75;18.75;;;;;8.31;58.90;101629.47;4363231;32;12424;-75
2021/01/05 12:01:40;;;;;;;;;18.50;18.50;;;;;8.63;58.34;101629.66;4364474;32;12426;-75
2021/01/05 12:04:36;;;;;;;;;20.00;20.00;;;;;8.71;57.89;101635.66;4360943;32;12408;-74
2021/01/05 12:07:31;;;;;;;;;21.25;20.00;;;;;8.88;57.98;101647.81;4362450;32;12430;-74
2021/01/05 12:09:59;;;;;;;;;18.75;18.75;;;;;8.76;57.71;101654.91;4363195;32;12399;-75
2021/01/05 12:12:55;;;;;;;;;21.25;20.75;;;;;8.75;57.57;101648.56;4375545;32;12351;-75
2021/01/05 12:15:50;;;;;;;;;14.50;14.50;;;;;8.62;58.18;101652.84;4384594;32;12361;-75
2021/01/05 12:18:46;;;;;;;;;17.50;17.00;;;;;8.87;56.92;101648.13;4369401;32;12437;-75
2021/01/05 12:21:42;;;;;;;;;15.25;14.50;;;;;8.49;57.74;101645.28;4356676;32;12305;-74
2021/01/05 12:24:42;;;;;;;;;14.00;13.00;;;;;8.21;58.25;101646.13;4374787;32;12418;-74
2021/01/05 12:27:37;;;;;;;;;16.00;16.00;;;;;7.71;59.10;101642.72;4349839;33;12520;-74
2021/01/05 12:30:33;;;;;;;;;21.50;21.00;;;;;7.89;59.21;101638.44;4374851;32;12377;-74
2021/01/05 12:33:28;;;;;;;;;15.75;15.75;;;;;7.72;59.84;101634.19;4388820;32;12315;-75
2021/01/05 12:35:56;;;;;;;;;22.00;21.50;;;;;8.07;59.01;101633.03;4360135;32;12486;-75
2021/01/05 12:38:52;;;;;;;;;25.25;24.75;;;;;7.91;59.71;101634.31;4364632;32;13053;-75
2021/01/05 12:41:49;;;;;;;;;21.00;21.00;;;;;7.94;60.16;101635.62;4374796;32;12427;-75
2021/01/05 12:44:30;;;;;;;;;18.75;18.75;;;;;8.09;59.24;101639.06;4359866;32;12538;-74
2021/01/05 12:47:27;;;;;;;;;21.25;19.50;;;;;7.94;58.98;101635.62;4380366;32;12468;-76
2021/01/05 12:50:09;;;;;;;;;15.50;14.50;;;;;7.83;59.04;101626.66;4378484;32;12396;-74
2021/01/05 12:53:05;;;;;;;;;18.50;18.50;;;;;7.59;59.36;101643.13;4373926;32;12574;-75
2021/01/05 12:56:00;;;;;;;;;19.50;19.50;;;;;7.94;59.54;101635.62;4364088;32;12388;-74
2021/01/05 12:58:59;;;;;;;;;19.75;19.50;;;;;7.64;60.02;101637.56;4372468;32;12528;-74
2021/01/05 13:01:57;;;;;;;;;16.75;16.75;;;;;7.65;60.35;101632.88;4365576;32;12452;-74
2021/01/05 13:04:52;;;;;;;;;22.25;20.25;;;;;7.30;60.91;101640.31;4364923;32;12470;-74
2021/01/05 13:07:48;;;;;;;;;20.00;20.00;;;;;7.48;60.53;101639.59;4374950;32;12454;-74
2021/01/05 13:10:44;;;;;;;;;23.00;22.75;;;;;7.24;60.90;101634.00;4374539;32;12408;-74
2021/01/05 13:13:40;;;;;;;;;13.00;11.00;;;;;6.74;62.82;101621.34;4372821;32;13114;-73
2021/01/05 13:16:35;;;;;;;;;19.50;19.00;;;;;6.98;62.18;101621.53;4358064;33;13117;-74